createdAt,value
2022-09-28T00:01:45.758Z,92.59
2022-09-28T00:04:47.970Z,93.22
2022-09-28T00:07:50.504Z,93.26
2022-09-28T00:10:56.416Z,93.00
2022-09-28T00:14:02.390Z,92.89
2022-09-28T00:17:04.620Z,92.58
2022-09-28T00:20:07.051Z,92.87
2022-09-28T00:23:09.596Z,92.67
2022-09-28T00:26:11.776Z,92.61
2022-09-28T00:29:18.800Z,91.72
2022-09-28T00:32:24.529Z,91.79
2022-09-28T00:35:26.698Z,92.23
2022-09-28T00:38:29.561Z,91.58
2022-09-28T00:41:32.017Z,92.56
2022-09-28T00:44:38.238Z,92.27
2022-09-28T00:47:43.051Z,93.38
2022-09-28T00:50:45.867Z,92.84
2022-09-28T00:53:50.117Z,92.01
2022-09-28T00:56:52.413Z,91.39
2022-09-28T00:59:54.835Z,91.68
2022-09-28T01:02:58.363Z,91.36
2022-09-28T01:06:03.616Z,91.74
2022-09-28T01:09:08.635Z,91.62
2022-09-28T01:12:10.940Z,92.10
2022-09-28T01:15:14.072Z,93.12
2022-09-28T01:18:29.308Z,93.09
2022-09-28T01:21:40.307Z,93.27
2022-09-28T01:24:45.759Z,93.84
2022-09-28T01:27:50.548Z,94.32
2022-09-28T01:31:03.305Z,94.07
2022-09-28T01:34:14.046Z,94.23
2022-09-28T01:37:20.911Z,93.92
2022-09-28T01:40:26.849Z,93.85
2022-09-28T01:43:31.963Z,93.97
2022-09-28T01:46:39.451Z,94.16
2022-09-28T01:50:06.222Z,94.12
2022-09-28T01:53:23.000Z,94.59
2022-09-28T01:56:36.777Z,95.27
2022-09-28T01:59:44.063Z,94.97
2022-09-28T02:02:58.437Z,95.05
2022-09-28T02:06:33.157Z,94.95
2022-09-28T02:09:42.844Z,95.40
2022-09-28T02:13:08.652Z,94.72
2022-09-28T02:16:22.225Z,94.78
2022-09-28T02:19:27.528Z,94.33
2022-09-28T02:22:40.392Z,94.65
2022-09-28T02:25:53.805Z,94.95
2022-09-28T02:28:56.703Z,94.78
2022-09-28T02:32:06.331Z,94.26
2022-09-28T02:35:14.617Z,94.12
2022-09-28T02:38:23.663Z,94.04
2022-09-28T02:41:51.391Z,93.57
2022-09-28T02:45:16.900Z,93.96
2022-09-28T02:49:10.551Z,93.62
2022-09-28T02:52:33.053Z,93.47
2022-09-28T02:55:59.850Z,93.38
2022-09-28T02:59:15.008Z,93.43
2022-09-28T03:02:31.241Z,93.02
2022-09-28T03:05:38.045Z,92.92
2022-09-28T03:09:00.888Z,93.18
2022-09-28T03:12:10.934Z,95.22
2022-09-28T03:15:24.060Z,95.62
2022-09-28T03:18:26.743Z,94.86
2022-09-28T03:21:28.915Z,94.23
2022-09-28T03:24:31.241Z,94.85
2022-09-28T03:27:33.518Z,95.22
2022-09-28T03:30:36.636Z,96.22
2022-09-28T03:33:38.877Z,96.91
2022-09-28T03:36:41.073Z,96.29
2022-09-28T03:39:43.282Z,96.15
2022-09-28T03:42:46.749Z,96.42
2022-09-28T03:45:57.012Z,96.52
2022-09-28T03:48:59.878Z,96.06
2022-09-28T03:52:04.696Z,96.45
2022-09-28T03:55:07.260Z,97.51
2022-09-28T03:58:10.012Z,97.78
2022-09-28T04:01:17.582Z,97.34
2022-09-28T04:04:21.271Z,96.54
2022-09-28T04:07:25.971Z,96.55
2022-09-28T04:10:30.245Z,96.05
2022-09-28T04:13:32.784Z,95.51
2022-09-28T04:16:35.062Z,95.95
2022-09-28T04:19:49.815Z,95.60
2022-09-28T04:23:02.233Z,95.26
2022-09-28T04:26:06.965Z,95.25
2022-09-28T04:29:16.799Z,95.44
2022-09-28T04:32:33.942Z,95.76
2022-09-28T04:35:37.025Z,95.83
2022-09-28T04:38:56.033Z,96.07
2022-09-28T04:42:01.178Z,96.60
2022-09-28T04:45:06.415Z,96.69
2022-09-28T04:48:13.160Z,97.05
2022-09-28T04:51:34.007Z,96.55
2022-09-28T04:54:36.311Z,95.98
2022-09-28T04:57:39.385Z,95.98
2022-09-28T05:00:42.712Z,95.83
2022-09-28T05:04:04.953Z,95.65
2022-09-28T05:07:23.154Z,96.12
2022-09-28T05:10:25.747Z,96.23
2022-09-28T05:13:29.251Z,95.41
2022-09-28T05:16:33.903Z,95.22
2022-09-28T05:19:54.892Z,95.90
2022-09-28T05:22:57.552Z,95.76
2022-09-28T05:26:02.669Z,95.66
2022-09-28T05:29:06.148Z,95.35
2022-09-28T05:32:46.225Z,95.32
2022-09-28T05:36:05.042Z,95.46
2022-09-28T05:39:07.569Z,94.45
2022-09-28T05:42:10.154Z,93.49
2022-09-28T05:45:15.097Z,91.72
2022-09-28T05:48:27.581Z,92.05
2022-09-28T05:51:30.437Z,92.20
2022-09-28T05:54:40.903Z,93.21
2022-09-28T05:57:43.292Z,93.54
2022-09-28T06:00:46.516Z,92.74
2022-09-28T06:03:49.151Z,94.17
2022-09-28T06:06:54.461Z,93.39
2022-09-28T06:10:00.913Z,92.82
2022-09-28T06:13:32.630Z,92.43
2022-09-28T06:16:41.731Z,92.96
2022-09-28T06:19:47.473Z,92.68
2022-09-28T06:23:01.625Z,93.84
2022-09-28T06:26:08.652Z,93.09
2022-09-28T06:29:20.030Z,92.79
2022-09-28T06:32:23.101Z,93.02
2022-09-28T06:35:44.152Z,92.06
2022-09-28T06:38:48.462Z,91.86
2022-09-28T06:41:59.510Z,91.93
2022-09-28T06:45:13.594Z,92.17
2022-09-28T06:48:29.757Z,91.94
2022-09-28T06:51:34.438Z,91.72
2022-09-28T06:54:56.560Z,90.34
2022-09-28T06:58:13.135Z,89.26
2022-09-28T07:01:17.754Z,88.77
2022-09-28T07:04:34.072Z,89.41
2022-09-28T07:07:55.947Z,87.98
2022-09-28T07:11:21.680Z,83.53
2022-09-28T07:14:56.099Z,83.32
2022-09-28T07:18:04.162Z,77.50
2022-09-28T07:21:20.940Z,70.87
2022-09-28T07:24:30.505Z,66.25
2022-09-28T07:27:52.992Z,63.89
2022-09-28T07:31:13.866Z,63.44
2022-09-28T07:34:27.515Z,63.39
2022-09-28T07:37:37.197Z,63.45
2022-09-28T07:41:00.147Z,66.67
2022-09-28T07:44:06.282Z,71.49
2022-09-28T07:47:10.303Z,72.71
2022-09-28T07:50:32.634Z,75.23
2022-09-28T07:54:06.596Z,74.09
2022-09-28T07:57:34.926Z,70.56
2022-09-28T08:00:51.545Z,72.49
2022-09-28T08:03:56.143Z,74.60
2022-09-28T08:06:59.760Z,75.90
2022-09-28T08:10:08.888Z,76.45
2022-09-28T08:13:31.309Z,75.08
2022-09-28T08:17:10.801Z,76.23
2022-09-28T08:20:36.941Z,76.14
2022-09-28T08:23:41.735Z,74.54
2022-09-28T08:26:44.760Z,74.15
2022-09-28T08:29:49.664Z,72.69
2022-09-28T08:33:21.758Z,72.69
2022-09-28T08:36:25.316Z,71.35
2022-09-28T08:39:37.051Z,71.08
2022-09-28T08:43:06.997Z,63.46
2022-09-28T08:46:37.117Z,59.85
2022-09-28T08:49:57.113Z,58.64
2022-09-28T08:53:47.971Z,63.00
2022-09-28T08:57:03.735Z,67.57
2022-09-28T09:00:11.704Z,63.98
2022-09-28T09:03:42.106Z,64.38
2022-09-28T09:07:48.098Z,65.45
2022-09-28T09:11:10.491Z,67.16
2022-09-28T09:14:33.963Z,67.88
2022-09-28T09:18:05.292Z,66.63
2022-09-28T09:21:39.671Z,64.90
2022-09-28T09:24:55.129Z,63.11
2022-09-28T09:28:12.467Z,63.48
2022-09-28T09:31:40.592Z,64.84
2022-09-28T09:34:45.971Z,64.03
2022-09-28T09:38:27.850Z,64.81
2022-09-28T09:42:06.100Z,65.28
2022-09-28T09:45:28.687Z,66.59
2022-09-28T09:49:04.132Z,63.29
2022-09-28T09:52:49.147Z,64.52
2022-09-28T09:55:57.469Z,66.91
2022-09-28T09:59:37.779Z,65.91
2022-09-28T10:02:51.432Z,63.96
2022-09-28T10:06:19.556Z,63.56
2022-09-28T10:09:34.803Z,63.80
2022-09-28T10:12:56.619Z,61.47
2022-09-28T10:15:59.107Z,61.53
2022-09-28T10:19:21.646Z,57.97
2022-09-28T10:22:49.178Z,53.30
2022-09-28T10:25:58.123Z,53.58
2022-09-28T10:29:04.470Z,52.22
2022-09-28T10:32:51.150Z,50.90
2022-09-28T10:35:54.231Z,47.38
2022-09-28T10:38:57.907Z,47.07
2022-09-28T10:42:13.453Z,47.29
2022-09-28T10:45:22.216Z,46.22
2022-09-28T10:48:24.797Z,44.41
2022-09-28T10:51:49.543Z,44.19
2022-09-28T10:54:57.421Z,43.25
2022-09-28T10:58:00.182Z,43.41
2022-09-28T11:01:16.603Z,42.11
2022-09-28T11:04:21.994Z,42.01
2022-09-28T11:07:34.250Z,41.91
2022-09-28T11:10:37.352Z,42.42
2022-09-28T11:13:50.208Z,42.79
2022-09-28T11:17:29.839Z,42.09
2022-09-28T11:20:35.519Z,44.72
2022-09-28T11:23:42.274Z,43.80
2022-09-28T11:26:56.923Z,42.00
2022-09-28T11:30:02.310Z,42.29
2022-09-28T11:33:28.732Z,40.62
2022-09-28T11:37:10.293Z,45.77
2022-09-28T11:40:27.855Z,49.27
2022-09-28T11:43:46.318Z,51.56
2022-09-28T11:47:29.816Z,52.82
2022-09-28T11:50:56.964Z,53.55
2022-09-28T11:54:14.629Z,49.68
2022-09-28T11:57:25.168Z,46.93
2022-09-28T12:00:28.592Z,40.74
2022-09-28T12:03:46.656Z,41.14
2022-09-28T12:06:53.953Z,38.32
2022-09-28T12:10:05.746Z,39.28
2022-09-28T12:13:19.506Z,36.63
2022-09-28T12:17:04.368Z,37.27
2022-09-28T12:20:12.949Z,40.49
2022-09-28T12:23:24.329Z,37.19
2022-09-28T12:27:05.571Z,37.84
2022-09-28T12:30:22.361Z,37.46
2022-09-28T12:33:24.895Z,35.51
2022-09-28T12:36:34.753Z,39.42
2022-09-28T12:40:06.695Z,38.18
2022-09-28T12:43:29.066Z,37.46
2022-09-28T12:46:46.791Z,37.64
2022-09-28T12:50:38.680Z,36.71
2022-09-28T12:53:47.290Z,41.03
2022-09-28T12:57:04.202Z,46.58
2022-09-28T13:00:09.669Z,50.47
2022-09-28T13:04:02.569Z,51.08
2022-09-28T13:07:07.531Z,51.93
2022-09-28T13:10:21.926Z,49.37
2022-09-28T13:13:39.032Z,45.05
2022-09-28T13:16:57.187Z,43.46
2022-09-28T13:20:35.754Z,40.52
2022-09-28T13:23:43.215Z,40.35
2022-09-28T13:26:54.793Z,45.31
2022-09-28T13:30:00.844Z,45.44
2022-09-28T13:33:08.690Z,45.51
2022-09-28T13:36:26.228Z,49.98
2022-09-28T13:39:44.872Z,52.85
2022-09-28T13:42:59.298Z,54.01
2022-09-28T13:46:18.780Z,54.02
2022-09-28T13:49:52.898Z,54.81
2022-09-28T13:53:16.135Z,54.57
2022-09-28T13:56:21.392Z,54.27
2022-09-28T13:59:27.847Z,52.68
2022-09-28T14:02:39.989Z,52.32
2022-09-28T14:06:11.484Z,52.43
2022-09-28T14:09:13.725Z,54.12
2022-09-28T14:12:32.946Z,55.12
2022-09-28T14:15:35.109Z,54.69
2022-09-28T14:18:37.395Z,55.29
2022-09-28T14:21:45.344Z,56.01
2022-09-28T14:25:15.230Z,55.74
2022-09-28T14:28:41.331Z,54.70
2022-09-28T14:31:45.323Z,56.76
2022-09-28T14:34:56.870Z,56.35
2022-09-28T14:38:22.876Z,58.56
2022-09-28T14:41:40.563Z,59.62
2022-09-28T14:45:05.281Z,60.06
2022-09-28T14:48:19.013Z,60.63
2022-09-28T14:51:27.177Z,61.47
2022-09-28T14:54:50.591Z,61.57
2022-09-28T14:57:57.738Z,60.69
2022-09-28T15:01:20.078Z,61.29
2022-09-28T15:04:27.796Z,62.24
2022-09-28T15:07:46.081Z,62.41
2022-09-28T15:10:52.560Z,62.76
2022-09-28T15:14:06.527Z,62.95
2022-09-28T15:17:13.412Z,63.97
2022-09-28T15:20:26.076Z,64.34
2022-09-28T15:23:40.399Z,64.61
2022-09-28T15:26:48.062Z,64.85
2022-09-28T15:30:01.148Z,64.71
2022-09-28T15:33:22.988Z,65.82
2022-09-28T15:36:31.627Z,65.82
2022-09-28T15:39:34.938Z,65.70
2022-09-28T15:42:37.516Z,66.01
2022-09-28T15:45:40.740Z,66.41
2022-09-28T15:48:57.097Z,66.60
2022-09-28T15:52:03.228Z,66.70
2022-09-28T15:55:33.306Z,66.86
2022-09-28T15:58:37.600Z,67.06
2022-09-28T16:01:42.390Z,67.34
2022-09-28T16:04:56.788Z,67.37
2022-09-28T16:08:03.645Z,68.10
2022-09-28T16:11:17.799Z,67.85
2022-09-28T16:14:24.227Z,68.51
2022-09-28T16:17:33.905Z,69.12
2022-09-28T16:20:39.009Z,70.11
2022-09-28T16:23:42.090Z,70.56
2022-09-28T16:26:44.831Z,71.03
2022-09-28T16:30:24.514Z,71.58
2022-09-28T16:33:30.128Z,71.97
2022-09-28T16:36:47.305Z,72.10
2022-09-28T16:39:49.867Z,72.44
2022-09-28T16:42:54.663Z,73.27
2022-09-28T16:46:00.098Z,73.00
2022-09-28T16:49:05.723Z,72.84
2022-09-28T16:52:12.430Z,73.51
2022-09-28T16:58:39.714Z,74.85
2022-09-28T17:01:43.754Z,74.26
2022-09-28T17:04:47.835Z,74.85
2022-09-28T17:08:03.242Z,74.74
2022-09-28T17:11:24.562Z,75.00
2022-09-28T17:14:27.170Z,74.24
2022-09-28T17:17:31.431Z,74.60
2022-09-28T17:20:35.425Z,75.69
2022-09-28T17:23:37.652Z,75.24
2022-09-28T17:26:41.716Z,75.82
2022-09-28T17:29:43.963Z,76.35
2022-09-28T17:32:46.781Z,76.49
2022-09-28T17:35:52.600Z,76.49
2022-09-28T17:38:54.947Z,76.90
2022-09-28T17:41:57.134Z,76.99
2022-09-28T17:44:59.278Z,77.67
2022-09-28T17:48:01.635Z,77.37
2022-09-28T17:51:05.635Z,77.36
2022-09-28T17:54:08.485Z,77.24
2022-09-28T17:57:10.711Z,77.44
2022-09-28T18:00:13.599Z,77.59
2022-09-28T18:03:21.145Z,77.40
2022-09-28T18:06:23.762Z,77.28
2022-09-28T18:09:25.981Z,76.71
2022-09-28T18:12:28.223Z,77.08
2022-09-28T18:15:30.444Z,77.44
2022-09-28T18:18:38.426Z,76.66
2022-09-28T18:21:40.575Z,76.67
2022-09-28T18:24:42.755Z,78.03
2022-09-28T18:27:44.896Z,79.46
2022-09-28T18:30:47.197Z,80.72
2022-09-28T18:33:49.663Z,81.13
2022-09-28T18:36:51.873Z,81.71
2022-09-28T18:39:54.007Z,81.32
2022-09-28T18:42:56.204Z,81.68
2022-09-28T18:45:58.517Z,82.11
2022-09-28T18:49:00.728Z,81.68
2022-09-28T18:52:03.467Z,82.94
2022-09-28T18:55:10.076Z,83.73
2022-09-28T18:58:13.450Z,83.64
2022-09-28T19:01:33.866Z,84.37
2022-09-28T19:04:36.115Z,84.64
2022-09-28T19:07:38.310Z,85.11
2022-09-28T19:10:40.486Z,84.72
2022-09-28T19:13:43.579Z,84.95
2022-09-28T19:16:46.063Z,84.69
2022-09-28T19:19:48.266Z,85.07
2022-09-28T19:22:50.656Z,85.57
2022-09-28T19:25:52.872Z,85.38
2022-09-28T19:28:58.458Z,85.40
2022-09-28T19:32:00.796Z,85.82
2022-09-28T19:35:05.584Z,86.39
2022-09-28T19:38:07.809Z,87.45
2022-09-28T19:41:39.396Z,86.90
2022-09-28T19:44:45.522Z,87.31
2022-09-28T19:47:48.989Z,87.72
2022-09-28T19:50:58.977Z,87.98
2022-09-28T19:54:02.462Z,87.92
2022-09-28T19:57:07.898Z,88.36
2022-09-28T20:00:11.399Z,89.02
2022-09-28T20:03:13.642Z,89.54
2022-09-28T20:06:17.464Z,89.68
2022-09-28T20:09:20.092Z,89.87
2022-09-28T20:12:22.486Z,90.10
2022-09-28T20:15:25.279Z,89.76
2022-09-28T20:18:27.519Z,90.73
2022-09-28T20:21:30.278Z,91.96
2022-09-28T20:24:32.927Z,91.83
2022-09-28T20:27:35.297Z,91.67
2022-09-28T20:30:38.376Z,91.19
2022-09-28T20:33:44.102Z,91.50
2022-09-28T20:36:46.244Z,92.27
2022-09-28T20:39:48.866Z,92.18
2022-09-28T20:42:51.007Z,91.81
2022-09-28T20:45:55.973Z,93.09
2022-09-28T20:48:59.479Z,93.57
2022-09-28T20:52:02.195Z,93.58
2022-09-28T20:55:07.448Z,93.73
2022-09-28T20:58:09.690Z,93.92
2022-09-28T21:01:14.695Z,93.98
2022-09-28T21:04:16.973Z,93.88
2022-09-28T21:07:19.173Z,93.49
2022-09-28T21:10:21.363Z,93.52
2022-09-28T21:13:24.353Z,93.28
2022-09-28T21:16:28.947Z,93.22
2022-09-28T21:19:31.885Z,93.34
2022-09-28T21:22:34.079Z,94.14
2022-09-28T21:25:36.210Z,94.32
2022-09-28T21:28:39.744Z,94.83
2022-09-28T21:31:46.650Z,94.02
2022-09-28T21:34:50.411Z,93.73
2022-09-28T21:37:52.544Z,93.24
2022-09-28T21:40:56.890Z,92.97
2022-09-28T21:43:59.128Z,93.44
2022-09-28T21:47:01.333Z,94.34
2022-09-28T21:50:03.897Z,94.18
2022-09-28T21:53:06.132Z,94.40
2022-09-28T21:56:10.784Z,94.44
2022-09-28T21:59:13.121Z,95.60
2022-09-28T22:02:15.256Z,96.42
2022-09-28T22:05:17.854Z,95.63
2022-09-28T22:08:20.518Z,96.08
2022-09-28T22:11:25.359Z,95.79
2022-09-28T22:14:27.495Z,95.74
2022-09-28T22:17:29.741Z,95.77
2022-09-28T22:20:31.934Z,95.76
2022-09-28T22:23:34.864Z,95.26
2022-09-28T22:26:38.248Z,94.77
2022-09-28T22:29:40.444Z,94.83
2022-09-28T22:32:42.592Z,94.77
2022-09-28T22:35:46.284Z,94.17
2022-09-28T22:38:49.184Z,93.98
2022-09-28T22:41:52.573Z,94.31
2022-09-28T22:44:54.721Z,94.10
2022-09-28T22:47:56.903Z,94.48
2022-09-28T22:50:59.386Z,94.72
2022-09-28T22:54:01.591Z,94.95
2022-09-28T22:57:04.387Z,94.54
2022-09-28T23:00:07.412Z,95.01
2022-09-28T23:03:09.604Z,95.33
2022-09-28T23:06:18.076Z,95.64
2022-09-28T23:09:20.349Z,95.69
2022-09-28T23:12:22.664Z,95.63
2022-09-28T23:15:25.399Z,95.43
2022-09-28T23:18:29.552Z,95.55
2022-09-28T23:21:31.670Z,95.70
2022-09-28T23:24:33.864Z,95.11
2022-09-28T23:27:36.006Z,95.04
2022-09-28T23:30:38.314Z,94.16
2022-09-28T23:33:40.701Z,93.67
2022-09-28T23:36:42.941Z,93.89
2022-09-28T23:39:45.091Z,93.89
2022-09-28T23:42:47.268Z,94.49
2022-09-28T23:45:49.612Z,95.38
2022-09-28T23:48:51.916Z,95.96
2022-09-28T23:51:56.074Z,95.97
2022-09-28T23:54:58.288Z,95.79
2022-09-28T23:58:00.411Z,95.74
